createdAt,value
2018-05-13T00:00:06.552Z,0.00
2018-05-13T00:01:06.776Z,0.00
2018-05-13T00:02:06.986Z,0.00
2018-05-13T00:03:07.199Z,0.00
2018-05-13T00:04:07.418Z,0.00
2018-05-13T00:05:07.630Z,0.00
2018-05-13T00:06:07.839Z,0.00
2018-05-13T00:07:08.059Z,0.00
2018-05-13T00:08:08.274Z,0.00
2018-05-13T00:09:08.487Z,0.00
2018-05-13T00:10:08.711Z,0.00
2018-05-13T00:11:08.919Z,0.00
2018-05-13T00:12:09.160Z,0.00
2018-05-13T00:13:09.374Z,0.00
2018-05-13T00:14:11.237Z,0.00
2018-05-13T00:15:09.770Z,0.00
2018-05-13T00:16:10.003Z,0.00
2018-05-13T00:17:14.164Z,0.00
2018-05-13T00:18:10.386Z,0.00
2018-05-13T00:19:10.596Z,0.00
2018-05-13T00:20:10.805Z,0.00
2018-05-13T00:21:11.041Z,0.00
2018-05-13T00:22:11.248Z,0.00
2018-05-13T00:23:11.460Z,0.00
2018-05-13T00:24:11.668Z,0.00
2018-05-13T00:25:11.895Z,0.00
2018-05-13T00:26:12.117Z,0.00
2018-05-13T00:27:12.393Z,0.00
2018-05-13T00:28:12.554Z,0.00
2018-05-13T00:29:12.814Z,0.00
2018-05-13T00:30:14.666Z,0.00
2018-05-13T00:31:14.667Z,0.00
2018-05-13T00:32:13.264Z,0.00
2018-05-13T00:33:13.480Z,0.00
2018-05-13T00:34:15.671Z,0.00
2018-05-13T00:35:15.665Z,0.00
2018-05-13T00:36:14.001Z,0.00
2018-05-13T00:37:14.217Z,0.00
2018-05-13T00:38:14.432Z,0.00
2018-05-13T00:39:14.640Z,0.00
2018-05-13T00:40:14.869Z,0.00
2018-05-13T00:41:15.065Z,0.00
2018-05-13T00:42:15.282Z,0.00
2018-05-13T00:43:15.508Z,0.00
2018-05-13T00:44:15.706Z,0.00
2018-05-13T00:45:15.933Z,0.00
2018-05-13T00:46:17.666Z,0.00
2018-05-13T00:47:18.168Z,0.00
2018-05-13T00:48:16.524Z,0.00
2018-05-13T00:49:16.720Z,0.00
2018-05-13T00:50:16.945Z,0.00
2018-05-13T00:51:17.153Z,0.00
2018-05-13T00:52:17.364Z,0.00
2018-05-13T00:53:17.596Z,0.00
2018-05-13T00:54:17.808Z,0.00
2018-05-13T00:55:18.009Z,0.00
2018-05-13T00:56:18.230Z,0.00
2018-05-13T00:57:18.443Z,0.00
2018-05-13T00:58:18.656Z,0.00
2018-05-13T00:59:18.880Z,0.00
2018-05-13T01:00:19.083Z,0.00
2018-05-13T01:01:19.303Z,0.00
2018-05-13T01:02:19.528Z,0.00
2018-05-13T01:03:19.742Z,0.00
2018-05-13T01:04:30.673Z,0.00
2018-05-13T01:05:20.130Z,0.00
2018-05-13T01:06:20.346Z,0.00
2018-05-13T01:07:20.555Z,0.00
2018-05-13T01:08:23.747Z,0.00
2018-05-13T01:09:23.759Z,0.00
2018-05-13T01:10:21.042Z,0.00
2018-05-13T01:11:21.251Z,0.00
2018-05-13T01:12:21.487Z,0.00
2018-05-13T01:13:21.797Z,0.00
2018-05-13T01:14:21.980Z,0.00
2018-05-13T01:15:22.286Z,0.00
2018-05-13T01:16:22.423Z,0.00
2018-05-13T01:17:22.635Z,0.00
2018-05-13T01:18:25.679Z,0.00
2018-05-13T01:19:23.065Z,0.00
2018-05-13T01:20:23.311Z,0.00
2018-05-13T01:21:23.529Z,0.00
2018-05-13T01:22:24.408Z,0.00
2018-05-13T01:23:24.435Z,0.00
2018-05-13T01:24:24.687Z,0.00
2018-05-13T01:25:26.167Z,0.00
2018-05-13T01:26:24.523Z,0.00
2018-05-13T01:27:24.739Z,0.00
2018-05-13T01:28:24.932Z,0.00
2018-05-13T01:29:25.153Z,0.00
2018-05-13T01:30:25.363Z,0.00
2018-05-13T01:31:25.571Z,0.00
2018-05-13T01:32:25.783Z,0.00
2018-05-13T01:33:29.679Z,0.00
2018-05-13T01:34:26.153Z,0.00
2018-05-13T01:35:26.380Z,0.00
2018-05-13T01:36:26.588Z,0.00
2018-05-13T01:37:26.802Z,0.00
2018-05-13T01:38:27.020Z,0.00
2018-05-13T01:39:27.230Z,0.00
2018-05-13T01:40:29.172Z,0.00
2018-05-13T01:41:27.628Z,0.00
2018-05-13T01:42:29.669Z,0.00
2018-05-13T01:43:28.004Z,0.00
2018-05-13T01:44:28.221Z,0.00
2018-05-13T01:45:28.439Z,0.00
2018-05-13T01:46:28.648Z,0.00
2018-05-13T01:47:31.679Z,0.00
2018-05-13T01:48:29.021Z,0.00
2018-05-13T01:49:29.228Z,0.00
2018-05-13T01:50:29.445Z,0.00
2018-05-13T01:51:29.661Z,0.00
2018-05-13T01:52:29.869Z,0.00
2018-05-13T01:53:30.100Z,0.00
2018-05-13T01:54:30.307Z,0.00
2018-05-13T01:55:32.169Z,0.00
2018-05-13T01:56:30.765Z,0.00
2018-05-13T01:57:30.980Z,0.00
2018-05-13T01:58:31.187Z,0.00
2018-05-13T01:59:31.402Z,0.00
2018-05-13T02:00:31.704Z,0.00
2018-05-13T02:01:31.840Z,0.00
2018-05-13T02:02:32.061Z,0.00
2018-05-13T02:03:32.260Z,0.00
2018-05-13T02:04:32.469Z,0.00
2018-05-13T02:05:32.695Z,0.00
2018-05-13T02:06:32.904Z,0.00
2018-05-13T02:07:33.124Z,0.00
2018-05-13T02:08:33.343Z,0.00
2018-05-13T02:09:35.175Z,0.00
2018-05-13T02:10:33.772Z,0.00
2018-05-13T02:11:33.983Z,0.00
2018-05-13T02:12:36.174Z,0.00
2018-05-13T02:13:34.386Z,0.00
2018-05-13T02:14:34.595Z,0.00
2018-05-13T02:15:34.815Z,0.00
2018-05-13T02:16:35.024Z,0.00
2018-05-13T02:17:35.233Z,0.00
2018-05-13T02:18:37.172Z,0.00
2018-05-13T02:19:35.621Z,0.00
2018-05-13T02:20:35.839Z,0.00
2018-05-13T02:21:36.060Z,0.00
2018-05-13T02:22:36.269Z,0.00
2018-05-13T02:23:36.478Z,0.00
2018-05-13T02:24:36.695Z,0.00
2018-05-13T02:25:36.906Z,0.00
2018-05-13T02:26:37.120Z,0.00
2018-05-13T02:27:37.342Z,0.00
2018-05-13T02:28:39.172Z,0.00
2018-05-13T02:29:37.758Z,0.00
2018-05-13T02:30:38.011Z,0.00
2018-05-13T02:31:38.187Z,0.00
2018-05-13T02:32:38.396Z,0.00
2018-05-13T02:33:38.607Z,0.00
2018-05-13T02:34:40.672Z,0.00
2018-05-13T02:35:39.008Z,0.00
2018-05-13T02:36:39.212Z,0.00
2018-05-13T02:37:39.424Z,0.00
2018-05-13T02:38:39.627Z,0.00
2018-05-13T02:39:39.853Z,0.00
2018-05-13T02:40:40.061Z,0.00
2018-05-13T02:41:48.213Z,0.00
2018-05-13T02:42:42.173Z,0.00
2018-05-13T02:43:40.648Z,0.00
2018-05-13T02:44:42.673Z,0.00
2018-05-13T02:45:41.011Z,0.00
2018-05-13T02:46:41.225Z,0.00
2018-05-13T02:47:41.434Z,0.00
2018-05-13T02:48:41.663Z,0.00
2018-05-13T02:49:41.872Z,0.00
2018-05-13T02:50:42.088Z,0.00
2018-05-13T02:51:42.304Z,0.00
2018-05-13T02:52:42.509Z,0.00
2018-05-13T02:53:46.678Z,0.00
2018-05-13T02:54:42.886Z,0.00
2018-05-13T02:55:43.096Z,0.00
2018-05-13T02:56:43.309Z,4.00
2018-05-13T02:57:43.530Z,4.00
2018-05-13T02:58:43.737Z,0.00
2018-05-13T02:59:43.954Z,0.00
2018-05-13T03:00:44.168Z,4.00
2018-05-13T03:01:48.173Z,0.00
2018-05-13T03:02:44.521Z,4.00
2018-05-13T03:03:46.432Z,4.00
2018-05-13T03:04:44.902Z,4.00
2018-05-13T03:05:45.119Z,8.00
2018-05-13T03:06:45.325Z,4.00
2018-05-13T03:07:45.544Z,4.00
2018-05-13T03:08:45.752Z,4.00
2018-05-13T03:09:45.961Z,8.00
2018-05-13T03:10:46.178Z,8.00
2018-05-13T03:11:46.387Z,12.00
2018-05-13T03:12:46.594Z,12.00
2018-05-13T03:13:48.675Z,16.00
2018-05-13T03:14:47.016Z,16.00
2018-05-13T03:15:47.241Z,20.00
2018-05-13T03:16:47.439Z,20.00
2018-05-13T03:17:47.651Z,28.00
2018-05-13T03:18:47.868Z,28.00
2018-05-13T03:19:48.088Z,36.00
2018-05-13T03:20:50.259Z,40.00
2018-05-13T03:21:48.531Z,48.00
2018-05-13T03:22:48.751Z,56.00
2018-05-13T03:23:48.958Z,64.00
2018-05-13T03:24:49.178Z,72.00
2018-05-13T03:25:49.395Z,84.00
2018-05-13T03:26:51.174Z,92.00
2018-05-13T03:27:51.678Z,108.00
2018-05-13T03:28:51.673Z,124.00
2018-05-13T03:29:50.013Z,136.00
2018-05-13T03:30:50.226Z,156.00
2018-05-13T03:31:50.440Z,172.00
2018-05-13T03:32:50.657Z,188.00
2018-05-13T03:33:50.867Z,212.00
2018-05-13T03:34:51.090Z,232.00
2018-05-13T03:35:51.301Z,252.00
2018-05-13T03:36:51.521Z,272.00
2018-05-13T03:37:51.737Z,292.00
2018-05-13T03:38:51.942Z,316.00
2018-05-13T03:39:53.683Z,340.00
2018-05-13T03:40:52.390Z,364.00
2018-05-13T03:41:52.600Z,392.00
2018-05-13T03:42:52.811Z,416.00
2018-05-13T03:43:54.679Z,448.00
2018-05-13T03:44:53.262Z,480.00
2018-05-13T03:45:53.477Z,516.00
2018-05-13T03:46:53.690Z,552.00
2018-05-13T03:47:53.902Z,592.00
2018-05-13T03:48:54.121Z,628.00
2018-05-13T03:49:54.330Z,672.00
2018-05-13T03:50:54.546Z,712.00
2018-05-13T03:51:54.753Z,760.00
2018-05-13T03:52:54.961Z,804.00
2018-05-13T03:53:55.183Z,852.00
2018-05-13T03:54:55.391Z,900.00
2018-05-13T03:55:55.596Z,952.00
2018-05-13T03:56:57.675Z,996.00
2018-05-13T03:57:56.003Z,1048.00
2018-05-13T03:58:56.206Z,1100.00
2018-05-13T03:59:56.429Z,1148.00
2018-05-13T04:00:56.637Z,1200.00
2018-05-13T04:01:56.850Z,1248.00
2018-05-13T04:02:57.070Z,1304.00
2018-05-13T04:03:57.282Z,1356.00
2018-05-13T04:04:57.506Z,1408.00
2018-05-13T04:05:57.719Z,1456.00
2018-05-13T04:06:57.932Z,1508.00
2018-05-13T04:07:59.684Z,1556.00
2018-05-13T04:08:58.263Z,1608.00
2018-05-13T04:09:58.474Z,1660.00
2018-05-13T04:10:58.692Z,1716.00
2018-05-13T04:11:58.903Z,1772.00
2018-05-13T04:12:59.105Z,1824.00
2018-05-13T04:13:59.308Z,1876.00
2018-05-13T04:14:59.518Z,1932.00
2018-05-13T04:15:59.728Z,1984.00
2018-05-13T04:16:59.941Z,2040.00
2018-05-13T04:18:00.156Z,2092.00
2018-05-13T04:19:00.381Z,2144.00
2018-05-13T04:20:00.594Z,2200.00
2018-05-13T04:21:00.814Z,2256.00
2018-05-13T04:22:01.044Z,2304.00
2018-05-13T04:23:02.739Z,2356.00
2018-05-13T04:24:01.469Z,2412.00
2018-05-13T04:25:01.705Z,2468.00
2018-05-13T04:26:01.902Z,2512.00
2018-05-13T04:27:03.675Z,2556.00
2018-05-13T04:28:02.258Z,2596.00
2018-05-13T04:29:02.473Z,2636.00
2018-05-13T04:30:02.693Z,2680.00
2018-05-13T04:31:02.898Z,2700.00
2018-05-13T04:32:03.101Z,2728.00
2018-05-13T04:33:03.323Z,2760.00
2018-05-13T04:34:05.185Z,2796.00
2018-05-13T04:35:03.775Z,2828.00
2018-05-13T04:36:03.990Z,2872.00
2018-05-13T04:37:04.198Z,2912.00
2018-05-13T04:38:06.178Z,2952.00
2018-05-13T04:39:08.184Z,2988.00
2018-05-13T04:40:04.767Z,3032.00
2018-05-13T04:41:04.989Z,3068.00
2018-05-13T04:42:05.200Z,3120.00
2018-05-13T04:43:05.419Z,3176.00
2018-05-13T04:44:05.633Z,3240.00
2018-05-13T04:45:05.842Z,3316.00
2018-05-13T04:46:06.055Z,3384.00
2018-05-13T04:47:06.265Z,3420.00
2018-05-13T04:48:06.483Z,3468.00
2018-05-13T04:49:06.703Z,3532.00
2018-05-13T04:50:06.918Z,3608.00
2018-05-13T04:51:07.148Z,3704.00
2018-05-13T04:52:07.357Z,3808.00
2018-05-13T04:53:07.572Z,3912.00
2018-05-13T04:54:09.677Z,4020.00
2018-05-13T04:55:08.058Z,4132.00
2018-05-13T04:56:08.228Z,4264.00
2018-05-13T04:57:08.459Z,4396.00
2018-05-13T04:58:08.665Z,4548.00
2018-05-13T04:59:08.876Z,4720.00
2018-05-13T05:00:09.096Z,4896.00
2018-05-13T05:01:09.313Z,5044.00
2018-05-13T05:02:09.520Z,5144.00
2018-05-13T05:03:09.821Z,5244.00
2018-05-13T05:04:09.950Z,5444.00
2018-05-13T05:05:10.158Z,5644.00
2018-05-13T05:06:10.370Z,5816.00
2018-05-13T05:07:10.577Z,5932.00
2018-05-13T05:08:10.796Z,5988.00
2018-05-13T05:09:12.684Z,5860.00
2018-05-13T05:10:11.151Z,5680.00
2018-05-13T05:11:11.370Z,5704.00
2018-05-13T05:12:11.580Z,5808.00
2018-05-13T05:13:15.679Z,5844.00
2018-05-13T05:14:12.008Z,5996.00
2018-05-13T05:15:12.221Z,6032.00
2018-05-13T05:16:12.449Z,6392.00
2018-05-13T05:17:12.653Z,6820.00
2018-05-13T05:18:12.861Z,7244.00
2018-05-13T05:19:13.085Z,7440.00
2018-05-13T05:20:13.288Z,7620.00
2018-05-13T05:21:13.502Z,7796.00
2018-05-13T05:22:13.716Z,7988.00
2018-05-13T05:23:13.922Z,7960.00
2018-05-13T05:24:14.134Z,7888.00
2018-05-13T05:25:14.343Z,8516.00
2018-05-13T05:26:14.551Z,9008.00
2018-05-13T05:27:14.763Z,9148.00
2018-05-13T05:28:14.975Z,9256.00
2018-05-13T05:29:15.189Z,9484.00
2018-05-13T05:30:17.183Z,9636.00
2018-05-13T05:31:15.646Z,9772.00
2018-05-13T05:32:15.864Z,10008.00
2018-05-13T05:33:16.075Z,10360.00
2018-05-13T05:34:16.294Z,10848.00
2018-05-13T05:35:16.517Z,11252.00
2018-05-13T05:36:16.733Z,11584.00
2018-05-13T05:37:16.947Z,11704.00
2018-05-13T05:38:17.171Z,11460.00
2018-05-13T05:39:17.380Z,11216.00
2018-05-13T05:40:17.626Z,11932.00
2018-05-13T05:41:17.822Z,12588.00
2018-05-13T05:42:18.041Z,12812.00
2018-05-13T05:43:18.262Z,12592.00
2018-05-13T05:44:18.471Z,12744.00
2018-05-13T05:45:20.185Z,13124.00
2018-05-13T05:46:18.899Z,13276.00
2018-05-13T05:47:19.114Z,12256.00
2018-05-13T05:48:19.338Z,12828.00
2018-05-13T05:49:21.179Z,13068.00
2018-05-13T05:50:19.764Z,12748.00
2018-05-13T05:51:19.986Z,12920.00
2018-05-13T05:52:20.207Z,15104.00
2018-05-13T05:53:20.437Z,15072.00
2018-05-13T05:54:24.185Z,14092.00
2018-05-13T05:55:20.770Z,15520.00
2018-05-13T05:56:20.981Z,15168.00
2018-05-13T05:57:21.204Z,16224.00
2018-05-13T05:58:21.420Z,16320.00
2018-05-13T05:59:21.646Z,15968.00
2018-05-13T06:00:21.859Z,16128.00
2018-05-13T06:01:22.081Z,16512.00
2018-05-13T06:02:22.292Z,16992.00
2018-05-13T06:03:22.500Z,16800.00
2018-05-13T06:04:22.726Z,16160.00
2018-05-13T06:05:24.719Z,15968.00
2018-05-13T06:06:23.173Z,16512.00
2018-05-13T06:07:26.190Z,16928.00
2018-05-13T06:08:23.525Z,17920.00
2018-05-13T06:09:27.698Z,17824.00
2018-05-13T06:10:23.915Z,17472.00
2018-05-13T06:11:30.421Z,17664.00
2018-05-13T06:12:24.386Z,18304.00
2018-05-13T06:13:24.601Z,19072.00
2018-05-13T06:14:24.819Z,19296.00
2018-05-13T06:15:26.692Z,18880.00
2018-05-13T06:16:25.283Z,19072.00
2018-05-13T06:17:27.185Z,19616.00
2018-05-13T06:18:27.188Z,19360.00
2018-05-13T06:19:28.692Z,19360.00
2018-05-13T06:20:25.913Z,19584.00
2018-05-13T06:21:26.127Z,19712.00
2018-05-13T06:22:27.694Z,21280.00
2018-05-13T06:23:26.545Z,20160.00
2018-05-13T06:24:26.760Z,21312.00
2018-05-13T06:25:28.684Z,17632.00
2018-05-13T06:26:27.159Z,18528.00
2018-05-13T06:27:27.402Z,21760.00
2018-05-13T06:28:27.615Z,23232.00
2018-05-13T06:29:28.823Z,24864.00
2018-05-13T06:30:29.693Z,24736.00
2018-05-13T06:31:28.285Z,24800.00
2018-05-13T06:32:30.230Z,23872.00
2018-05-13T06:33:28.696Z,23168.00
2018-05-13T06:34:28.916Z,23328.00
2018-05-13T06:35:29.148Z,23648.00
2018-05-13T06:36:30.392Z,22208.00
2018-05-13T06:37:29.507Z,21088.00
2018-05-13T06:38:31.689Z,22592.00
2018-05-13T06:39:31.751Z,25664.00
2018-05-13T06:40:30.038Z,28000.00
2018-05-13T06:41:30.273Z,29280.00
2018-05-13T06:42:30.492Z,30272.00
2018-05-13T06:43:33.238Z,29888.00
2018-05-13T06:44:30.850Z,29024.00
2018-05-13T06:45:31.079Z,28544.00
2018-05-13T06:46:31.309Z,28736.00
2018-05-13T06:47:33.187Z,29728.00
2018-05-13T06:48:31.682Z,31232.00
2018-05-13T06:49:35.687Z,32736.00
2018-05-13T06:50:33.691Z,33856.00
2018-05-13T06:51:32.375Z,33600.00
2018-05-13T06:52:53.526Z,32160.00
2018-05-13T06:53:32.719Z,30336.00
2018-05-13T06:54:34.692Z,29216.00
2018-05-13T06:55:33.156Z,29824.00
2018-05-13T06:56:33.382Z,31872.00
2018-05-13T06:57:35.189Z,31552.00
2018-05-13T06:58:33.821Z,27872.00
2018-05-13T06:59:37.690Z,25504.00
2018-05-13T07:00:37.727Z,31680.00
2018-05-13T07:01:34.315Z,29344.00
2018-05-13T07:02:36.193Z,28672.00
2018-05-13T07:03:36.193Z,29888.00
2018-05-13T07:04:34.813Z,31872.00
2018-05-13T07:05:36.694Z,34016.00
2018-05-13T07:06:36.692Z,35392.00
2018-05-13T07:07:37.190Z,35232.00
2018-05-13T07:08:36.597Z,33632.00
2018-05-13T07:09:37.189Z,31552.00
2018-05-13T07:10:37.696Z,30944.00
2018-05-13T07:11:37.725Z,31872.00
2018-05-13T07:12:43.207Z,33568.00
2018-05-13T07:13:39.211Z,34944.00
2018-05-13T07:14:36.601Z,36448.00
2018-05-13T07:15:37.709Z,37312.00
2018-05-13T07:16:38.690Z,37856.00
2018-05-13T07:17:38.690Z,37440.00
2018-05-13T07:18:40.226Z,36704.00
2018-05-13T07:19:38.429Z,36800.00
2018-05-13T07:20:39.196Z,36992.00
2018-05-13T07:21:39.706Z,37536.00
2018-05-13T07:22:53.697Z,38560.00
2018-05-13T07:23:42.650Z,39136.00
2018-05-13T07:24:38.379Z,39328.00
2018-05-13T07:25:42.191Z,39520.00
2018-05-13T07:26:38.792Z,39232.00
2018-05-13T07:27:39.028Z,39456.00
2018-05-13T07:28:46.208Z,40800.00
2018-05-13T07:29:41.304Z,42112.00
2018-05-13T07:30:39.609Z,43392.00
2018-05-13T07:31:41.701Z,44064.00
2018-05-13T07:32:41.050Z,44064.00
2018-05-13T07:33:44.205Z,43328.00
2018-05-13T07:34:42.194Z,43008.00
2018-05-13T07:35:40.561Z,42944.00
2018-05-13T07:36:40.683Z,41984.00
2018-05-13T07:37:40.948Z,20736.00
2018-05-13T07:38:42.697Z,23264.00
2018-05-13T07:39:41.295Z,28480.00
2018-05-13T07:40:43.229Z,44896.00
2018-05-13T07:41:41.728Z,45280.00
2018-05-13T07:42:44.716Z,45440.00
2018-05-13T07:43:43.707Z,45216.00
2018-05-13T07:44:42.485Z,44352.00
2018-05-13T07:45:44.231Z,43488.00
2018-05-13T07:46:44.702Z,42720.00
2018-05-13T07:47:44.691Z,42848.00
2018-05-13T07:48:45.197Z,42848.00
2018-05-13T07:49:43.452Z,41792.00
2018-05-13T07:50:47.200Z,40736.00
2018-05-13T07:51:50.200Z,39616.00
2018-05-13T07:52:46.698Z,38592.00
2018-05-13T07:53:45.697Z,39264.00
2018-05-13T07:54:44.174Z,42720.00
2018-05-13T07:55:44.426Z,47488.00
2018-05-13T07:56:48.205Z,49856.00
2018-05-13T07:57:44.811Z,50848.00
2018-05-13T07:58:46.738Z,49728.00
2018-05-13T07:59:53.223Z,47232.00
2018-05-13T08:00:52.204Z,44000.00
2018-05-13T08:01:45.542Z,42880.00
2018-05-13T08:02:47.740Z,44000.00
2018-05-13T08:03:46.034Z,46880.00
2018-05-13T08:04:49.737Z,51008.00
2018-05-13T08:05:50.306Z,52352.00
2018-05-13T08:06:48.200Z,51200.00
2018-05-13T08:07:47.699Z,50016.00
2018-05-13T08:08:53.705Z,49280.00
2018-05-13T08:09:48.704Z,51552.00
2018-05-13T08:10:56.200Z,56736.00
2018-05-13T08:11:49.198Z,63776.00
2018-05-13T08:12:51.281Z,62304.00
2018-05-13T08:13:49.731Z,67808.00
2018-05-13T08:14:51.698Z,60896.00
2018-05-13T08:15:49.744Z,44288.00
2018-05-13T08:16:48.363Z,46432.00
2018-05-13T08:17:50.217Z,30304.00
2018-05-13T08:18:52.708Z,29728.00
2018-05-13T08:19:49.056Z,35712.00
2018-05-13T08:20:51.158Z,30880.00
2018-05-13T08:21:49.520Z,31040.00
2018-05-13T08:22:52.716Z,23328.00
2018-05-13T08:23:50.652Z,22752.00
2018-05-13T08:24:52.716Z,22080.00
2018-05-13T08:25:54.204Z,24352.00
2018-05-13T08:26:57.202Z,26720.00
2018-05-13T08:27:54.730Z,25184.00
2018-05-13T08:28:55.050Z,31712.00
2018-05-13T08:29:51.168Z,25536.00
2018-05-13T08:30:53.208Z,27168.00
2018-05-13T08:31:56.160Z,28000.00
2018-05-13T08:32:59.156Z,33408.00
2018-05-13T08:33:54.708Z,32960.00
2018-05-13T08:34:52.055Z,46752.00
2018-05-13T08:35:53.286Z,25184.00
2018-05-13T08:36:52.520Z,50912.00
2018-05-13T08:37:53.750Z,59232.00
2018-05-13T08:38:53.980Z,59744.00
2018-05-13T08:39:53.212Z,57664.00
2018-05-13T08:40:53.452Z,56288.00
2018-05-13T08:41:54.165Z,53536.00
2018-05-13T08:42:53.791Z,53024.00
2018-05-13T08:43:54.016Z,54656.00
2018-05-13T08:44:56.208Z,56896.00
2018-05-13T08:45:54.436Z,60160.00
2018-05-13T08:46:56.204Z,62720.00
2018-05-13T08:47:56.732Z,62304.00
2018-05-13T08:48:56.750Z,60608.00
2018-05-13T08:49:56.710Z,58592.00
2018-05-13T08:50:55.293Z,56448.00
2018-05-13T08:51:57.226Z,56288.00
2018-05-13T08:52:55.759Z,58848.00
2018-05-13T08:53:57.762Z,60896.00
2018-05-13T08:54:56.113Z,62016.00
2018-05-13T08:55:59.210Z,62656.00
2018-05-13T08:56:58.242Z,61760.00
2018-05-13T08:57:59.259Z,58592.00
2018-05-13T08:59:00.705Z,57248.00
2018-05-13T08:59:58.707Z,58560.00
2018-05-13T09:00:57.290Z,59872.00
2018-05-13T09:01:59.396Z,60608.00
2018-05-13T09:03:00.160Z,61632.00
2018-05-13T09:04:00.726Z,63008.00
2018-05-13T09:05:01.703Z,63072.00
2018-05-13T09:06:02.190Z,58592.00
2018-05-13T09:07:02.210Z,55520.00
2018-05-13T09:08:00.224Z,55488.00
2018-05-13T09:09:01.239Z,57952.00
2018-05-13T09:10:35.706Z,60832.00
2018-05-13T09:10:59.562Z,64064.00
2018-05-13T09:11:59.448Z,65920.00
2018-05-13T09:13:03.202Z,65728.00
2018-05-13T09:14:24.250Z,64608.00
2018-05-13T09:15:16.653Z,61888.00
2018-05-13T09:16:01.144Z,61280.00
2018-05-13T09:17:02.369Z,60128.00
2018-05-13T09:18:03.156Z,59744.00
2018-05-13T09:19:02.709Z,60544.00
2018-05-13T09:20:04.714Z,61472.00
2018-05-13T09:21:02.724Z,59584.00
2018-05-13T09:22:06.157Z,60800.00
2018-05-13T09:23:05.203Z,61536.00
2018-05-13T09:24:01.724Z,62240.00
2018-05-13T09:25:05.728Z,61728.00
2018-05-13T09:26:02.093Z,60192.00
2018-05-13T09:27:03.161Z,57344.00
2018-05-13T09:28:04.154Z,53248.00
2018-05-13T09:29:07.164Z,55008.00
2018-05-13T09:30:03.044Z,57920.00
2018-05-13T09:31:06.048Z,59392.00
2018-05-13T09:32:10.209Z,62944.00
2018-05-13T09:33:12.660Z,65344.00
2018-05-13T09:34:07.709Z,63072.00
2018-05-13T09:35:05.195Z,61024.00
2018-05-13T09:36:06.206Z,58112.00
2018-05-13T09:37:06.255Z,46400.00
2018-05-13T09:38:06.220Z,56704.00
2018-05-13T09:39:04.859Z,57568.00
2018-05-13T09:40:06.164Z,62464.00
2018-05-13T09:41:21.661Z,66048.00
2018-05-13T09:42:13.210Z,44672.00
2018-05-13T09:43:17.208Z,26176.00
2018-05-13T09:44:10.160Z,45184.00
2018-05-13T09:45:07.704Z,57248.00
2018-05-13T09:46:17.733Z,49088.00
2018-05-13T09:47:08.234Z,55488.00
2018-05-13T09:48:29.233Z,59360.00
2018-05-13T09:49:06.823Z,62208.00
2018-05-13T09:50:07.046Z,64640.00
2018-05-13T09:51:11.964Z,62464.00
2018-05-13T09:52:09.189Z,59328.00
2018-05-13T09:53:09.207Z,55072.00
2018-05-13T09:54:09.704Z,52992.00
2018-05-13T09:55:16.744Z,54048.00
2018-05-13T09:56:10.201Z,57504.00
2018-05-13T09:57:10.201Z,57792.00
2018-05-13T09:58:08.686Z,59168.00
2018-05-13T09:59:10.710Z,60480.00
2018-05-13T10:00:30.110Z,53856.00
2018-05-13T10:01:11.241Z,48416.00
2018-05-13T10:02:09.492Z,48736.00
2018-05-13T10:03:11.206Z,49536.00
2018-05-13T10:04:12.733Z,53984.00
2018-05-13T10:05:16.707Z,54592.00
2018-05-13T10:06:26.234Z,55936.00
2018-05-13T10:07:12.204Z,56512.00
2018-05-13T10:08:11.717Z,54688.00
2018-05-13T10:09:11.858Z,58720.00
2018-05-13T10:10:11.188Z,60480.00
2018-05-13T10:11:11.182Z,61728.00
2018-05-13T10:12:34.229Z,60352.00
2018-05-13T10:13:16.144Z,61280.00
2018-05-13T10:14:12.808Z,61312.00
2018-05-13T10:15:13.716Z,60064.00
2018-05-13T10:16:15.761Z,58784.00
2018-05-13T10:17:16.241Z,59200.00
2018-05-13T10:18:12.477Z,60736.00
2018-05-13T10:19:15.185Z,62592.00
2018-05-13T10:20:16.660Z,64416.00
2018-05-13T10:21:14.741Z,63488.00
2018-05-13T10:22:13.238Z,59328.00
2018-05-13T10:23:14.164Z,44544.00
2018-05-13T10:24:36.214Z,53216.00
2018-05-13T10:25:14.805Z,24832.00
2018-05-13T10:26:14.055Z,28576.00
2018-05-13T10:28:47.807Z,51424.00
2018-05-13T10:29:47.824Z,28320.00
2018-05-13T10:30:46.429Z,24672.00
2018-05-13T10:31:46.673Z,24800.00
2018-05-13T10:32:48.821Z,26720.00
2018-05-13T10:33:48.077Z,28160.00
2018-05-13T10:34:47.201Z,33024.00
2018-05-13T10:35:50.015Z,33792.00
2018-05-13T10:36:47.643Z,59328.00
2018-05-13T10:37:54.828Z,54752.00
2018-05-13T10:38:48.093Z,50688.00
2018-05-13T10:39:51.829Z,32608.00
2018-05-13T10:40:48.414Z,48544.00
2018-05-13T10:41:50.330Z,51328.00
2018-05-13T10:42:51.772Z,56800.00
2018-05-13T10:43:50.824Z,60128.00
2018-05-13T10:44:57.792Z,58176.00
2018-05-13T10:45:51.338Z,58560.00
2018-05-13T10:46:51.338Z,58560.00
2018-05-13T10:47:52.334Z,54880.00
2018-05-13T10:48:51.828Z,19616.00
2018-05-13T10:49:52.838Z,16672.00
2018-05-13T10:50:51.178Z,15096.00
2018-05-13T10:52:06.380Z,13072.00
2018-05-13T10:52:53.285Z,11532.00
2018-05-13T10:53:52.827Z,10860.00
2018-05-13T10:54:51.793Z,10164.00
2018-05-13T10:55:52.850Z,9452.00
2018-05-13T10:56:57.507Z,8372.00
2018-05-13T10:57:53.381Z,7140.00
2018-05-13T10:58:56.276Z,6228.00
2018-05-13T10:59:52.142Z,5612.00
2018-05-13T11:00:52.364Z,5252.00
2018-05-13T11:01:54.324Z,5220.00
2018-05-13T11:02:58.792Z,5404.00
2018-05-13T11:03:56.841Z,5688.00
2018-05-13T11:04:55.874Z,6024.00
2018-05-13T11:05:53.365Z,6336.00
2018-05-13T11:06:53.593Z,6640.00
2018-05-13T11:07:56.283Z,7004.00
2018-05-13T11:08:55.039Z,7292.00
2018-05-13T11:09:55.854Z,7584.00
2018-05-13T11:10:54.487Z,7896.00
2018-05-13T11:11:56.344Z,8304.00
2018-05-13T11:12:56.825Z,8756.00
2018-05-13T11:13:56.836Z,9592.00
2018-05-13T11:14:58.822Z,10856.00
2018-05-13T11:15:56.550Z,12496.00
2018-05-13T11:16:55.790Z,14156.00
2018-05-13T11:18:07.824Z,19648.00
2018-05-13T11:18:58.836Z,21792.00
2018-05-13T11:19:57.826Z,22560.00
2018-05-13T11:20:59.322Z,22176.00
2018-05-13T11:21:56.677Z,20608.00
2018-05-13T11:22:58.823Z,17056.00
2018-05-13T11:23:58.826Z,11028.00
2018-05-13T11:24:57.173Z,9360.00
2018-05-13T11:25:57.395Z,8216.00
2018-05-13T11:26:57.718Z,7504.00
2018-05-13T11:27:59.835Z,6984.00
2018-05-13T11:28:59.842Z,6764.00
2018-05-13T11:29:58.189Z,6748.00
2018-05-13T11:31:00.346Z,6984.00
2018-05-13T11:31:58.559Z,7392.00
2018-05-13T11:32:58.793Z,7988.00
2018-05-13T11:33:59.037Z,8820.00
2018-05-13T11:34:59.266Z,9788.00
2018-05-13T11:36:03.324Z,10816.00
2018-05-13T11:37:01.452Z,11836.00
2018-05-13T11:38:01.324Z,12860.00
2018-05-13T11:39:01.847Z,13828.00
2018-05-13T11:40:01.823Z,14764.00
2018-05-13T11:41:08.329Z,16032.00
2018-05-13T11:42:03.377Z,17344.00
2018-05-13T11:43:03.360Z,18720.00
2018-05-13T11:44:02.330Z,20128.00
2018-05-13T11:45:02.848Z,21280.00
2018-05-13T11:46:02.855Z,22784.00
2018-05-13T11:47:01.349Z,23392.00
2018-05-13T11:48:04.333Z,27552.00
2018-05-13T11:49:04.329Z,24224.00
2018-05-13T11:50:05.839Z,44480.00
2018-05-13T11:51:02.208Z,50368.00
2018-05-13T11:52:13.337Z,51904.00
2018-05-13T11:53:02.554Z,25440.00
2018-05-13T11:54:04.013Z,31648.00
2018-05-13T11:55:04.826Z,18144.00
2018-05-13T11:56:09.168Z,16832.00
2018-05-13T11:57:05.337Z,16768.00
2018-05-13T11:58:04.294Z,16960.00
2018-05-13T11:59:07.353Z,17472.00
2018-05-13T12:00:07.959Z,17184.00
2018-05-13T12:01:04.179Z,16288.00
2018-05-13T12:02:04.504Z,16608.00
2018-05-13T12:03:07.334Z,18240.00
2018-05-13T12:04:06.340Z,20544.00
2018-05-13T12:05:06.851Z,22688.00
2018-05-13T12:06:06.828Z,25184.00
2018-05-13T12:07:05.298Z,25664.00
2018-05-13T12:08:06.553Z,23744.00
2018-05-13T12:09:05.780Z,24864.00
2018-05-13T12:10:06.008Z,23072.00
2018-05-13T12:11:10.812Z,33216.00
2018-05-13T12:12:10.368Z,35936.00
2018-05-13T12:13:08.331Z,33440.00
2018-05-13T12:14:06.789Z,17184.00
2018-05-13T12:15:08.878Z,15092.00
2018-05-13T12:16:08.196Z,18592.00
2018-05-13T12:17:09.328Z,14940.00